createdAt,value
2022-09-17T00:04:41.167Z,12.36
2022-09-17T00:09:42.787Z,12.44
2022-09-17T00:14:44.290Z,12.55
2022-09-17T00:19:45.681Z,12.62
2022-09-17T00:24:47.107Z,12.49
2022-09-17T00:29:48.877Z,12.44
2022-09-17T00:34:52.219Z,12.51
2022-09-17T00:39:53.643Z,12.43
2022-09-17T00:44:57.230Z,12.39
2022-09-17T00:50:19.944Z,12.27
2022-09-17T00:55:31.680Z,12.26
2022-09-17T01:00:33.188Z,12.24
2022-09-17T01:05:45.889Z,12.10
2022-09-17T01:11:10.852Z,12.07
2022-09-17T01:16:41.218Z,12.18
2022-09-17T01:22:10.152Z,11.95
2022-09-17T01:27:20.472Z,11.81
2022-09-17T01:32:45.643Z,11.53
2022-09-17T01:38:24.140Z,11.35
2022-09-17T01:43:55.692Z,11.05
2022-09-17T01:49:01.480Z,10.93
2022-09-17T01:54:11.288Z,10.94
2022-09-17T01:59:24.893Z,10.93
2022-09-17T02:04:31.609Z,10.99
2022-09-17T02:09:39.640Z,10.88
2022-09-17T02:14:50.522Z,10.75
2022-09-17T02:19:53.704Z,10.75
2022-09-17T02:25:08.418Z,10.63
2022-09-17T02:30:10.316Z,10.69
2022-09-17T02:35:13.932Z,10.72
2022-09-17T02:40:18.205Z,10.78
2022-09-17T02:45:26.397Z,10.91
2022-09-17T02:50:50.187Z,10.92
2022-09-17T02:56:14.169Z,11.12
2022-09-17T03:01:25.529Z,11.27
2022-09-17T03:06:27.406Z,11.40
2022-09-17T03:11:28.937Z,11.49
2022-09-17T03:16:30.477Z,11.53
2022-09-17T03:21:31.960Z,11.59
2022-09-17T03:26:33.396Z,11.60
2022-09-17T03:31:34.853Z,11.72
2022-09-17T03:36:36.340Z,12.10
2022-09-17T03:41:37.938Z,12.23
2022-09-17T03:46:39.453Z,12.00
2022-09-17T03:51:41.188Z,12.00
2022-09-17T03:56:42.632Z,12.07
2022-09-17T04:01:44.147Z,12.01
2022-09-17T04:06:45.639Z,12.08
2022-09-17T04:11:47.047Z,12.11
2022-09-17T04:16:48.482Z,12.12
2022-09-17T04:21:49.880Z,12.10
2022-09-17T04:26:51.329Z,12.33
2022-09-17T04:31:53.100Z,12.34
2022-09-17T04:36:54.490Z,12.26
2022-09-17T04:41:55.982Z,12.18
2022-09-17T04:46:57.455Z,12.30
2022-09-17T04:51:58.916Z,12.24
2022-09-17T04:57:00.749Z,12.18
2022-09-17T05:02:02.239Z,12.16
2022-09-17T05:07:03.838Z,12.25
2022-09-17T05:12:05.366Z,12.36
2022-09-17T05:17:06.759Z,12.40
2022-09-17T05:22:08.168Z,12.51
2022-09-17T05:27:09.594Z,12.47
2022-09-17T05:32:11.005Z,12.62
2022-09-17T05:37:12.678Z,12.70
2022-09-17T05:42:14.073Z,12.75
2022-09-17T05:47:15.499Z,12.78
2022-09-17T05:52:16.894Z,12.99
2022-09-17T05:57:18.348Z,12.95
2022-09-17T06:02:19.820Z,13.09
2022-09-17T06:07:21.283Z,13.37
2022-09-17T06:12:23.461Z,13.33
2022-09-17T06:17:24.853Z,13.43
2022-09-17T06:22:26.362Z,13.42
2022-09-17T06:27:36.680Z,13.71
2022-09-17T06:32:38.109Z,13.51
2022-09-17T06:37:40.853Z,13.53
2022-09-17T06:42:42.557Z,13.54
2022-09-17T06:47:44.010Z,13.56
2022-09-17T06:52:53.587Z,13.61
2022-09-17T06:57:59.166Z,13.49
2022-09-17T07:03:01.207Z,13.36
2022-09-17T07:08:03.349Z,13.77
2022-09-17T07:13:04.900Z,13.77
2022-09-17T07:18:11.538Z,13.73
2022-09-17T07:23:12.935Z,13.70
2022-09-17T07:28:14.380Z,13.64
2022-09-17T07:33:16.782Z,13.58
2022-09-17T07:38:18.245Z,13.86
2022-09-17T07:43:20.068Z,14.00
2022-09-17T07:48:21.617Z,13.82
2022-09-17T07:53:23.100Z,13.88
2022-09-17T07:58:30.066Z,14.05
2022-09-17T08:03:31.499Z,13.98
2022-09-17T08:08:34.142Z,14.09
2022-09-17T08:13:36.506Z,14.24
2022-09-17T08:18:37.932Z,14.31
2022-09-17T08:23:41.461Z,14.32
2022-09-17T08:28:48.036Z,14.21
2022-09-17T08:33:49.668Z,14.29
2022-09-17T08:38:54.186Z,14.28
2022-09-17T08:44:07.771Z,14.65
2022-09-17T08:49:35.810Z,14.27
2022-09-17T08:55:21.839Z,14.61
2022-09-17T09:00:24.492Z,14.76
2022-09-17T09:05:42.826Z,14.87
2022-09-17T09:10:54.129Z,14.83
2022-09-17T09:16:01.055Z,14.54
2022-09-17T09:21:26.908Z,14.67
2022-09-17T09:26:50.321Z,14.55
2022-09-17T09:32:27.543Z,14.61
2022-09-17T09:37:35.363Z,14.64
2022-09-17T09:42:39.708Z,14.63
2022-09-17T09:48:00.918Z,14.45
2022-09-17T09:53:19.152Z,14.45
2022-09-17T09:58:31.071Z,14.78
2022-09-17T10:03:36.203Z,14.57
2022-09-17T10:08:40.244Z,14.58
2022-09-17T10:13:41.693Z,14.49
2022-09-17T10:18:43.716Z,14.58
2022-09-17T10:23:45.951Z,14.64
2022-09-17T10:29:00.435Z,14.87
2022-09-17T10:34:02.673Z,14.94
2022-09-17T10:39:26.056Z,14.87
2022-09-17T10:44:33.707Z,14.80
2022-09-17T10:50:06.404Z,14.69
2022-09-17T10:55:43.993Z,14.65
2022-09-17T11:00:57.229Z,14.61
2022-09-17T11:06:01.461Z,15.07
2022-09-17T11:11:11.243Z,15.53
2022-09-17T11:16:31.456Z,15.58
2022-09-17T11:21:41.773Z,15.58
2022-09-17T11:26:48.737Z,15.55
2022-09-17T11:32:02.213Z,15.79
2022-09-17T11:37:18.406Z,15.97
2022-09-17T11:42:24.805Z,16.05
2022-09-17T11:47:33.657Z,15.88
2022-09-17T11:52:38.199Z,15.98
2022-09-17T11:57:42.358Z,16.00
2022-09-17T12:02:52.682Z,15.92
2022-09-17T12:08:19.637Z,16.07
2022-09-17T12:13:30.009Z,16.11
2022-09-17T12:18:43.341Z,16.18
2022-09-17T12:23:52.052Z,16.18
2022-09-17T12:29:30.860Z,16.09
2022-09-17T12:34:53.518Z,16.14
2022-09-17T12:40:15.244Z,16.20
2022-09-17T12:45:25.567Z,15.93
2022-09-17T12:50:50.285Z,16.26
2022-09-17T12:56:03.571Z,16.14
2022-09-17T13:01:31.330Z,16.22
2022-09-17T13:06:42.616Z,15.92
2022-09-17T13:12:03.364Z,16.26
2022-09-17T13:17:14.337Z,16.32
2022-09-17T13:22:27.697Z,16.24
2022-09-17T13:27:29.481Z,16.29
2022-09-17T13:32:33.853Z,16.46
2022-09-17T13:37:58.516Z,16.64
2022-09-17T13:43:02.684Z,16.59
2022-09-17T13:48:11.839Z,16.50
2022-09-17T13:53:16.053Z,16.65
2022-09-17T13:58:23.308Z,16.67
2022-09-17T14:03:46.405Z,16.34
2022-09-17T14:08:55.487Z,16.37
2022-09-17T14:13:59.997Z,16.16
2022-09-17T14:19:03.189Z,16.04
2022-09-17T14:24:44.844Z,16.07
2022-09-17T14:29:48.715Z,15.90
2022-09-17T14:34:50.350Z,15.88
2022-09-17T14:39:52.503Z,15.96
2022-09-17T14:45:03.715Z,16.06
2022-09-17T14:50:21.558Z,16.09
2022-09-17T14:55:31.102Z,16.06
2022-09-17T15:00:38.200Z,16.15
2022-09-17T15:05:41.016Z,15.99
2022-09-17T15:10:58.310Z,15.77
2022-09-17T15:16:04.933Z,15.95
2022-09-17T15:21:32.480Z,16.06
2022-09-17T15:26:40.789Z,15.72
2022-09-17T15:31:42.332Z,15.64
2022-09-17T15:37:03.861Z,15.66
2022-09-17T15:42:05.408Z,15.64
2022-09-17T15:47:44.652Z,15.65
2022-09-17T15:52:47.440Z,15.77
2022-09-17T15:57:48.891Z,15.61
2022-09-17T16:02:50.519Z,15.45
2022-09-17T16:07:52.155Z,15.30
2022-09-17T16:12:53.641Z,15.12
2022-09-17T16:17:55.988Z,14.91
2022-09-17T16:22:57.407Z,14.80
2022-09-17T16:28:12.506Z,14.74
2022-09-17T16:33:16.202Z,14.66
2022-09-17T16:38:17.640Z,14.69
2022-09-17T16:43:19.339Z,14.62
2022-09-17T16:48:20.790Z,14.60
2022-09-17T16:53:22.199Z,14.33
2022-09-17T16:58:23.847Z,14.57
2022-09-17T17:03:25.570Z,14.09
2022-09-17T17:08:27.130Z,13.94
2022-09-17T17:13:29.690Z,13.80
2022-09-17T17:18:31.506Z,13.62
2022-09-17T17:23:34.728Z,13.51
2022-09-17T17:28:36.698Z,13.48
2022-09-17T17:33:38.181Z,13.34
2022-09-17T17:38:40.752Z,13.02
2022-09-17T17:43:42.299Z,13.31
2022-09-17T17:48:43.883Z,13.01
2022-09-17T17:53:46.150Z,13.06
2022-09-17T17:58:47.986Z,12.99
2022-09-17T18:03:49.761Z,12.97
2022-09-17T18:08:51.173Z,13.12
2022-09-17T18:13:55.237Z,13.19
2022-09-17T18:18:58.258Z,13.00
2022-09-17T18:23:59.744Z,13.11
2022-09-17T18:29:07.052Z,13.17
2022-09-17T18:34:12.209Z,13.24
2022-09-17T18:44:36.952Z,13.16
2022-09-17T18:49:38.396Z,13.08
2022-09-17T18:54:39.791Z,12.98
2022-09-17T18:59:41.476Z,12.92
2022-09-17T19:04:42.894Z,12.99
2022-09-17T19:09:44.370Z,12.97
2022-09-17T19:14:45.768Z,12.94
2022-09-17T19:19:47.238Z,12.93
2022-09-17T19:24:48.635Z,12.84
2022-09-17T19:29:50.296Z,12.81
2022-09-17T19:34:51.724Z,12.60
2022-09-17T19:39:53.168Z,12.66
2022-09-17T19:44:54.626Z,12.59
2022-09-17T19:49:56.219Z,12.41
2022-09-17T19:54:57.666Z,12.39
2022-09-17T19:59:59.055Z,12.36
2022-09-17T20:05:00.502Z,12.28
2022-09-17T20:10:01.926Z,12.19
2022-09-17T20:15:03.721Z,12.05
2022-09-17T20:20:06.529Z,11.90
2022-09-17T20:25:08.437Z,11.88
2022-09-17T20:30:10.743Z,11.85
2022-09-17T20:35:12.275Z,11.82
2022-09-17T20:40:15.832Z,11.71
2022-09-17T20:45:17.382Z,11.62
2022-09-17T20:50:18.820Z,11.59
2022-09-17T20:55:21.511Z,11.60
2022-09-17T21:00:25.928Z,11.46
2022-09-17T21:05:27.352Z,11.53
2022-09-17T21:10:28.748Z,11.51
2022-09-17T21:15:30.193Z,11.48
2022-09-17T21:20:35.882Z,11.44
2022-09-17T21:25:37.278Z,11.47
2022-09-17T21:30:38.677Z,11.54
2022-09-17T21:35:40.262Z,11.45
2022-09-17T21:40:44.020Z,11.41
2022-09-17T21:45:45.649Z,11.34
2022-09-17T21:50:47.049Z,11.41
2022-09-17T21:55:48.519Z,11.47
2022-09-17T22:00:52.801Z,11.21
2022-09-17T22:05:54.227Z,11.06
2022-09-17T22:11:07.223Z,11.00
2022-09-17T22:16:10.173Z,11.24
2022-09-17T22:21:26.712Z,10.92
2022-09-17T22:26:31.652Z,10.98
2022-09-17T22:31:33.506Z,11.04
2022-09-17T22:36:35.080Z,10.94
2022-09-17T22:41:42.835Z,10.90
2022-09-17T22:46:46.473Z,10.92
2022-09-17T22:51:48.477Z,10.97
2022-09-17T22:56:49.946Z,10.87
2022-09-17T23:01:51.381Z,10.82
2022-09-17T23:06:52.890Z,10.83
2022-09-17T23:11:54.299Z,10.80
2022-09-17T23:16:55.794Z,10.69
2022-09-17T23:21:57.193Z,10.79
2022-09-17T23:26:58.645Z,10.81
2022-09-17T23:32:00.078Z,10.79
2022-09-17T23:37:01.535Z,10.85
2022-09-17T23:42:03.066Z,10.94
2022-09-17T23:47:04.637Z,10.91
2022-09-17T23:52:06.052Z,10.89
2022-09-17T23:57:07.448Z,10.91
